sensor_id;sensor_type;location;lat;lon;timestamp;P1;P2;P0
47741;PMS5003;33504;52.066;6.096;2022-08-25T00:01:49;14;14;
47741;PMS5003;33504;52.066;6.096;2022-08-25T00:04:18;14;14;
47741;PMS5003;33504;52.066;6.096;2022-08-25T00:06:46;14;14;
47741;PMS5003;33504;52.066;6.096;2022-08-25T00:09:16;15;15;
47741;PMS5003;33504;52.066;6.096;2022-08-25T00:11:46;15;15;
47741;PMS5003;33504;52.066;6.096;2022-08-25T00:14:15;16;16;
47741;PMS5003;33504;52.066;6.096;2022-08-25T00:16:44;16;16;
47741;PMS5003;33504;52.066;6.096;2022-08-25T00:19:13;16;16;
47741;PMS5003;33504;52.066;6.096;2022-08-25T00:21:42;14;14;
47741;PMS5003;33504;52.066;6.096;2022-08-25T00:24:10;14;13;
47741;PMS5003;33504;52.066;6.096;2022-08-25T00:26:41;14;14;
47741;PMS5003;33504;52.066;6.096;2022-08-25T00:29:10;15;15;
47741;PMS5003;33504;52.066;6.096;2022-08-25T00:31:38;16;16;
47741;PMS5003;33504;52.066;6.096;2022-08-25T00:34:06;17;17;
47741;PMS5003;33504;52.066;6.096;2022-08-25T00:36:36;16;15;
47741;PMS5003;33504;52.066;6.096;2022-08-25T00:39:04;15;15;
47741;PMS5003;33504;52.066;6.096;2022-08-25T00:41:33;16;16;
47741;PMS5003;33504;52.066;6.096;2022-08-25T00:44:01;17;17;
47741;PMS5003;33504;52.066;6.096;2022-08-25T00:46:32;17;17;
47741;PMS5003;33504;52.066;6.096;2022-08-25T00:49:02;16;16;
47741;PMS5003;33504;52.066;6.096;2022-08-25T00:51:32;20;19;
47741;PMS5003;33504;52.066;6.096;2022-08-25T00:54:04;17;17;
47741;PMS5003;33504;52.066;6.096;2022-08-25T00:56:33;17;17;
47741;PMS5003;33504;52.066;6.096;2022-08-25T00:59:00;23;20;
47741;PMS5003;33504;52.066;6.096;2022-08-25T01:01:30;19;18;
47741;PMS5003;33504;52.066;6.096;2022-08-25T01:03:57;18;18;
47741;PMS5003;33504;52.066;6.096;2022-08-25T01:06:26;15;15;
47741;PMS5003;33504;52.066;6.096;2022-08-25T01:08:56;15;15;
47741;PMS5003;33504;52.066;6.096;2022-08-25T01:11:24;17;17;
47741;PMS5003;33504;52.066;6.096;2022-08-25T01:13:53;21;21;
47741;PMS5003;33504;52.066;6.096;2022-08-25T01:16:22;18;17;
47741;PMS5003;33504;52.066;6.096;2022-08-25T01:18:50;17;17;
47741;PMS5003;33504;52.066;6.096;2022-08-25T01:21:20;16;16;
47741;PMS5003;33504;52.066;6.096;2022-08-25T01:23:49;19;18;
47741;PMS5003;33504;52.066;6.096;2022-08-25T01:26:18;20;19;
47741;PMS5003;33504;52.066;6.096;2022-08-25T01:28:48;18;18;
47741;PMS5003;33504;52.066;6.096;2022-08-25T01:31:16;20;20;
47741;PMS5003;33504;52.066;6.096;2022-08-25T01:33:44;20;20;
47741;PMS5003;33504;52.066;6.096;2022-08-25T01:36:11;18;18;
47741;PMS5003;33504;52.066;6.096;2022-08-25T01:38:42;19;19;
47741;PMS5003;33504;52.066;6.096;2022-08-25T01:41:10;20;20;
47741;PMS5003;33504;52.066;6.096;2022-08-25T01:43:37;21;21;
47741;PMS5003;33504;52.066;6.096;2022-08-25T01:46:04;21;21;
47741;PMS5003;33504;52.066;6.096;2022-08-25T01:48:32;23;22;
47741;PMS5003;33504;52.066;6.096;2022-08-25T01:50:59;20;20;
47741;PMS5003;33504;52.066;6.096;2022-08-25T01:53:27;22;21;
47741;PMS5003;33504;52.066;6.096;2022-08-25T01:55:56;20;20;
47741;PMS5003;33504;52.066;6.096;2022-08-25T01:58:24;21;21;
47741;PMS5003;33504;52.066;6.096;2022-08-25T02:00:53;18;18;
47741;PMS5003;33504;52.066;6.096;2022-08-25T02:03:23;20;20;
47741;PMS5003;33504;52.066;6.096;2022-08-25T02:05:51;18;18;
47741;PMS5003;33504;52.066;6.096;2022-08-25T02:08:19;22;22;
47741;PMS5003;33504;52.066;6.096;2022-08-25T02:10:46;17;17;
47741;PMS5003;33504;52.066;6.096;2022-08-25T02:13:14;19;19;
47741;PMS5003;33504;52.066;6.096;2022-08-25T02:15:42;18;18;
47741;PMS5003;33504;52.066;6.096;2022-08-25T02:18:11;22;22;
47741;PMS5003;33504;52.066;6.096;2022-08-25T02:20:38;22;22;
47741;PMS5003;33504;52.066;6.096;2022-08-25T02:23:06;20;20;
47741;PMS5003;33504;52.066;6.096;2022-08-25T02:25:33;19;19;
47741;PMS5003;33504;52.066;6.096;2022-08-25T02:28:02;21;21;
47741;PMS5003;33504;52.066;6.096;2022-08-25T02:30:30;21;21;
47741;PMS5003;33504;52.066;6.096;2022-08-25T02:32:57;22;21;
47741;PMS5003;33504;52.066;6.096;2022-08-25T02:35:25;21;21;
47741;PMS5003;33504;52.066;6.096;2022-08-25T02:37:52;23;23;
47741;PMS5003;33504;52.066;6.096;2022-08-25T02:40:19;20;19;
47741;PMS5003;33504;52.066;6.096;2022-08-25T02:42:47;21;21;
47741;PMS5003;33504;52.066;6.096;2022-08-25T02:45:16;20;20;
47741;PMS5003;33504;52.066;6.096;2022-08-25T02:47:43;20;20;
47741;PMS5003;33504;52.066;6.096;2022-08-25T02:50:11;22;21;
47741;PMS5003;33504;52.066;6.096;2022-08-25T02:52:38;20;20;
47741;PMS5003;33504;52.066;6.096;2022-08-25T02:55:07;21;21;
47741;PMS5003;33504;52.066;6.096;2022-08-25T02:57:35;25;22;
47741;PMS5003;33504;52.066;6.096;2022-08-25T03:00:03;20;19;
47741;PMS5003;33504;52.066;6.096;2022-08-25T03:02:32;19;19;
47741;PMS5003;33504;52.066;6.096;2022-08-25T03:05:00;23;20;
47741;PMS5003;33504;52.066;6.096;2022-08-25T03:07:27;22;21;
47741;PMS5003;33504;52.066;6.096;2022-08-25T03:09:54;20;18;
47741;PMS5003;33504;52.066;6.096;2022-08-25T03:12:21;19;19;
47741;PMS5003;33504;52.066;6.096;2022-08-25T03:14:48;21;21;
47741;PMS5003;33504;52.066;6.096;2022-08-25T03:17:15;25;25;
47741;PMS5003;33504;52.066;6.096;2022-08-25T03:19:42;21;20;
47741;PMS5003;33504;52.066;6.096;2022-08-25T03:22:10;24;23;
47741;PMS5003;33504;52.066;6.096;2022-08-25T03:24:37;20;19;
47741;PMS5003;33504;52.066;6.096;2022-08-25T03:27:04;21;20;
47741;PMS5003;33504;52.066;6.096;2022-08-25T03:29:32;22;22;
47741;PMS5003;33504;52.066;6.096;2022-08-25T03:32:00;22;21;
47741;PMS5003;33504;52.066;6.096;2022-08-25T03:34:28;19;19;
47741;PMS5003;33504;52.066;6.096;2022-08-25T03:36:56;21;20;
47741;PMS5003;33504;52.066;6.096;2022-08-25T03:39:24;21;21;
47741;PMS5003;33504;52.066;6.096;2022-08-25T03:41:52;22;22;
47741;PMS5003;33504;52.066;6.096;2022-08-25T03:44:20;23;23;
47741;PMS5003;33504;52.066;6.096;2022-08-25T03:46:48;21;21;
47741;PMS5003;33504;52.066;6.096;2022-08-25T03:49:17;24;23;
47741;PMS5003;33504;52.066;6.096;2022-08-25T03:51:48;21;21;
47741;PMS5003;33504;52.066;6.096;2022-08-25T03:54:17;25;25;
47741;PMS5003;33504;52.066;6.096;2022-08-25T03:56:46;24;24;
47741;PMS5003;33504;52.066;6.096;2022-08-25T03:59:14;29;29;
47741;PMS5003;33504;52.066;6.096;2022-08-25T04:01:42;32;30;
47741;PMS5003;33504;52.066;6.096;2022-08-25T04:04:10;25;25;
47741;PMS5003;33504;52.066;6.096;2022-08-25T04:06:38;28;28;
47741;PMS5003;33504;52.066;6.096;2022-08-25T04:09:06;25;25;
47741;PMS5003;33504;52.066;6.096;2022-08-25T04:11:33;25;25;
47741;PMS5003;33504;52.066;6.096;2022-08-25T04:14:01;22;22;
47741;PMS5003;33504;52.066;6.096;2022-08-25T04:16:29;46;46;
47741;PMS5003;33504;52.066;6.096;2022-08-25T04:18:59;42;42;
47741;PMS5003;33504;52.066;6.096;2022-08-25T04:21:28;29;29;
47741;PMS5003;33504;52.066;6.096;2022-08-25T04:23:55;28;28;
47741;PMS5003;33504;52.066;6.096;2022-08-25T04:26:24;21;21;
47741;PMS5003;33504;52.066;6.096;2022-08-25T04:28:53;25;25;
47741;PMS5003;33504;52.066;6.096;2022-08-25T04:31:22;21;21;
47741;PMS5003;33504;52.066;6.096;2022-08-25T04:33:50;41;41;
47741;PMS5003;33504;52.066;6.096;2022-08-25T04:36:17;22;22;
47741;PMS5003;33504;52.066;6.096;2022-08-25T04:38:46;39;39;
47741;PMS5003;33504;52.066;6.096;2022-08-25T04:41:15;35;35;
47741;PMS5003;33504;52.066;6.096;2022-08-25T04:43:44;34;33;
47741;PMS5003;33504;52.066;6.096;2022-08-25T04:46:13;39;39;
47741;PMS5003;33504;52.066;6.096;2022-08-25T04:48:42;33;32;
47741;PMS5003;33504;52.066;6.096;2022-08-25T04:51:11;32;32;
47741;PMS5003;33504;52.066;6.096;2022-08-25T04:53:39;23;22;
47741;PMS5003;33504;52.066;6.096;2022-08-25T04:56:08;24;24;
47741;PMS5003;33504;52.066;6.096;2022-08-25T04:58:38;37;37;
47741;PMS5003;33504;52.066;6.096;2022-08-25T05:01:07;23;22;
47741;PMS5003;33504;52.066;6.096;2022-08-25T05:03:35;25;25;
47741;PMS5003;33504;52.066;6.096;2022-08-25T05:06:03;38;38;
47741;PMS5003;33504;52.066;6.096;2022-08-25T05:08:31;39;39;
47741;PMS5003;33504;52.066;6.096;2022-08-25T05:11:03;49;49;
47741;PMS5003;33504;52.066;6.096;2022-08-25T05:13:31;37;36;
47741;PMS5003;33504;52.066;6.096;2022-08-25T05:15:59;36;36;
47741;PMS5003;33504;52.066;6.096;2022-08-25T05:18:28;38;38;
47741;PMS5003;33504;52.066;6.096;2022-08-25T05:21:00;29;29;
47741;PMS5003;33504;52.066;6.096;2022-08-25T05:23:28;21;21;
47741;PMS5003;33504;52.066;6.096;2022-08-25T05:26:00;24;22;
47741;PMS5003;33504;52.066;6.096;2022-08-25T05:28:29;22;22;
47741;PMS5003;33504;52.066;6.096;2022-08-25T05:30:56;24;22;
47741;PMS5003;33504;52.066;6.096;2022-08-25T05:33:25;24;24;
47741;PMS5003;33504;52.066;6.096;2022-08-25T05:35:53;23;22;
47741;PMS5003;33504;52.066;6.096;2022-08-25T05:38:20;23;22;
47741;PMS5003;33504;52.066;6.096;2022-08-25T05:40:50;22;20;
47741;PMS5003;33504;52.066;6.096;2022-08-25T05:43:18;22;22;
47741;PMS5003;33504;52.066;6.096;2022-08-25T05:45:45;22;21;
47741;PMS5003;33504;52.066;6.096;2022-08-25T05:48:12;23;23;
47741;PMS5003;33504;52.066;6.096;2022-08-25T05:50:39;20;20;
47741;PMS5003;33504;52.066;6.096;2022-08-25T05:53:06;23;23;
47741;PMS5003;33504;52.066;6.096;2022-08-25T05:55:33;21;21;
47741;PMS5003;33504;52.066;6.096;2022-08-25T05:58:00;19;19;
47741;PMS5003;33504;52.066;6.096;2022-08-25T06:00:27;29;29;
47741;PMS5003;33504;52.066;6.096;2022-08-25T06:02:54;35;34;
47741;PMS5003;33504;52.066;6.096;2022-08-25T06:05:21;40;40;
47741;PMS5003;33504;52.066;6.096;2022-08-25T06:07:49;45;45;
47741;PMS5003;33504;52.066;6.096;2022-08-25T06:10:17;43;42;
47741;PMS5003;33504;52.066;6.096;2022-08-25T06:12:45;27;27;
47741;PMS5003;33504;52.066;6.096;2022-08-25T06:15:13;28;28;
47741;PMS5003;33504;52.066;6.096;2022-08-25T06:17:42;36;35;
47741;PMS5003;33504;52.066;6.096;2022-08-25T06:20:10;23;22;
47741;PMS5003;33504;52.066;6.096;2022-08-25T06:22:38;24;24;
47741;PMS5003;33504;52.066;6.096;2022-08-25T06:25:07;26;24;
47741;PMS5003;33504;52.066;6.096;2022-08-25T06:27:36;42;39;
47741;PMS5003;33504;52.066;6.096;2022-08-25T06:30:04;25;25;
47741;PMS5003;33504;52.066;6.096;2022-08-25T06:32:33;23;23;
47741;PMS5003;33504;52.066;6.096;2022-08-25T06:35:02;26;25;
47741;PMS5003;33504;52.066;6.096;2022-08-25T06:37:30;20;19;
47741;PMS5003;33504;52.066;6.096;2022-08-25T06:39:57;20;20;
47741;PMS5003;33504;52.066;6.096;2022-08-25T06:42:24;21;21;
47741;PMS5003;33504;52.066;6.096;2022-08-25T06:44:51;23;23;
47741;PMS5003;33504;52.066;6.096;2022-08-25T06:47:18;28;28;
47741;PMS5003;33504;52.066;6.096;2022-08-25T06:49:46;24;24;
47741;PMS5003;33504;52.066;6.096;2022-08-25T06:52:13;20;20;
47741;PMS5003;33504;52.066;6.096;2022-08-25T06:54:40;20;20;
47741;PMS5003;33504;52.066;6.096;2022-08-25T06:57:07;27;27;
47741;PMS5003;33504;52.066;6.096;2022-08-25T06:59:35;20;20;
47741;PMS5003;33504;52.066;6.096;2022-08-25T07:02:04;18;18;
47741;PMS5003;33504;52.066;6.096;2022-08-25T07:04:31;26;26;
47741;PMS5003;33504;52.066;6.096;2022-08-25T07:07:01;19;18;
47741;PMS5003;33504;52.066;6.096;2022-08-25T07:09:29;18;18;
47741;PMS5003;33504;52.066;6.096;2022-08-25T07:11:56;19;19;
47741;PMS5003;33504;52.066;6.096;2022-08-25T07:14:23;24;24;
47741;PMS5003;33504;52.066;6.096;2022-08-25T07:16:50;20;19;
47741;PMS5003;33504;52.066;6.096;2022-08-25T07:19:17;26;25;
47741;PMS5003;33504;52.066;6.096;2022-08-25T07:21:45;22;20;
47741;PMS5003;33504;52.066;6.096;2022-08-25T07:24:14;19;18;
47741;PMS5003;33504;52.066;6.096;2022-08-25T07:26:42;24;23;
47741;PMS5003;33504;52.066;6.096;2022-08-25T07:29:10;17;16;
47741;PMS5003;33504;52.066;6.096;2022-08-25T07:31:39;18;17;
47741;PMS5003;33504;52.066;6.096;2022-08-25T07:34:07;19;19;
47741;PMS5003;33504;52.066;6.096;2022-08-25T07:36:35;20;18;
47741;PMS5003;33504;52.066;6.096;2022-08-25T07:39:02;20;20;
47741;PMS5003;33504;52.066;6.096;2022-08-25T07:41:30;31;31;
47741;PMS5003;33504;52.066;6.096;2022-08-25T07:44:01;20;19;
47741;PMS5003;33504;52.066;6.096;2022-08-25T07:46:28;18;18;
47741;PMS5003;33504;52.066;6.096;2022-08-25T07:48:55;17;16;
47741;PMS5003;33504;52.066;6.096;2022-08-25T07:51:22;19;17;
47741;PMS5003;33504;52.066;6.096;2022-08-25T07:53:49;18;18;
47741;PMS5003;33504;52.066;6.096;2022-08-25T07:56:16;16;16;
47741;PMS5003;33504;52.066;6.096;2022-08-25T07:58:44;18;18;
47741;PMS5003;33504;52.066;6.096;2022-08-25T08:01:12;17;15;
47741;PMS5003;33504;52.066;6.096;2022-08-25T08:03:40;12;12;
47741;PMS5003;33504;52.066;6.096;2022-08-25T08:06:08;17;15;
47741;PMS5003;33504;52.066;6.096;2022-08-25T08:08:38;17;15;
47741;PMS5003;33504;52.066;6.096;2022-08-25T08:11:05;14;14;
47741;PMS5003;33504;52.066;6.096;2022-08-25T08:13:40;16;15;
47741;PMS5003;33504;52.066;6.096;2022-08-25T08:16:08;18;18;
47741;PMS5003;33504;52.066;6.096;2022-08-25T08:18:35;18;16;
47741;PMS5003;33504;52.066;6.096;2022-08-25T08:21:03;15;15;
47741;PMS5003;33504;52.066;6.096;2022-08-25T08:23:30;18;18;
47741;PMS5003;33504;52.066;6.096;2022-08-25T08:25:57;15;15;
47741;PMS5003;33504;52.066;6.096;2022-08-25T08:28:24;13;13;
47741;PMS5003;33504;52.066;6.096;2022-08-25T08:30:52;14;14;
47741;PMS5003;33504;52.066;6.096;2022-08-25T08:33:20;15;14;
47741;PMS5003;33504;52.066;6.096;2022-08-25T08:35:54;15;15;
47741;PMS5003;33504;52.066;6.096;2022-08-25T08:38:21;15;14;
47741;PMS5003;33504;52.066;6.096;2022-08-25T08:40:53;17;17;
47741;PMS5003;33504;52.066;6.096;2022-08-25T08:43:28;10;10;
47741;PMS5003;33504;52.066;6.096;2022-08-25T08:45:56;15;13;
47741;PMS5003;33504;52.066;6.096;2022-08-25T08:48:28;10;10;
47741;PMS5003;33504;52.066;6.096;2022-08-25T08:51:10;12;11;
47741;PMS5003;33504;52.066;6.096;2022-08-25T08:53:44;13;12;
47741;PMS5003;33504;52.066;6.096;2022-08-25T08:56:16;16;15;
47741;PMS5003;33504;52.066;6.096;2022-08-25T08:58:48;14;13;
47741;PMS5003;33504;52.066;6.096;2022-08-25T09:01:22;11;11;
47741;PMS5003;33504;52.066;6.096;2022-08-25T09:03:55;11;11;
47741;PMS5003;33504;52.066;6.096;2022-08-25T09:06:29;12;12;
47741;PMS5003;33504;52.066;6.096;2022-08-25T09:09:02;13;13;
47741;PMS5003;33504;52.066;6.096;2022-08-25T09:11:34;12;12;
47741;PMS5003;33504;52.066;6.096;2022-08-25T09:14:17;12;12;
47741;PMS5003;33504;52.066;6.096;2022-08-25T09:16:54;10;10;
47741;PMS5003;33504;52.066;6.096;2022-08-25T09:19:30;13;12;
47741;PMS5003;33504;52.066;6.096;2022-08-25T09:22:10;12;12;
47741;PMS5003;33504;52.066;6.096;2022-08-25T09:24:51;13;13;
47741;PMS5003;33504;52.066;6.096;2022-08-25T09:27:24;13;13;
47741;PMS5003;33504;52.066;6.096;2022-08-25T09:30:00;14;13;
47741;PMS5003;33504;52.066;6.096;2022-08-25T09:32:32;13;13;
47741;PMS5003;33504;52.066;6.096;2022-08-25T09:35:04;14;14;
47741;PMS5003;33504;52.066;6.096;2022-08-25T09:37:33;12;12;
47741;PMS5003;33504;52.066;6.096;2022-08-25T09:40:00;11;11;
47741;PMS5003;33504;52.066;6.096;2022-08-25T09:42:44;13;13;
47741;PMS5003;33504;52.066;6.096;2022-08-25T09:45:13;12;12;
47741;PMS5003;33504;52.066;6.096;2022-08-25T09:47:41;11;11;
47741;PMS5003;33504;52.066;6.096;2022-08-25T09:50:13;13;13;
47741;PMS5003;33504;52.066;6.096;2022-08-25T09:52:41;15;15;
47741;PMS5003;33504;52.066;6.096;2022-08-25T09:55:42;9;9;
47741;PMS5003;33504;52.066;6.096;2022-08-25T09:58:14;13;13;
47741;PMS5003;33504;52.066;6.096;2022-08-25T10:00:44;11;11;
47741;PMS5003;33504;52.066;6.096;2022-08-25T10:03:27;13;12;
47741;PMS5003;33504;52.066;6.096;2022-08-25T10:05:58;12;12;
47741;PMS5003;33504;52.066;6.096;2022-08-25T10:08:31;10;10;
47741;PMS5003;33504;52.066;6.096;2022-08-25T10:11:01;10;10;
47741;PMS5003;33504;52.066;6.096;2022-08-25T10:13:32;11;11;
47741;PMS5003;33504;52.066;6.096;2022-08-25T10:16:05;10;10;
47741;PMS5003;33504;52.066;6.096;2022-08-25T10:18:35;13;13;
47741;PMS5003;33504;52.066;6.096;2022-08-25T10:21:06;10;10;
47741;PMS5003;33504;52.066;6.096;2022-08-25T10:23:38;10;10;
47741;PMS5003;33504;52.066;6.096;2022-08-25T10:26:10;9;9;
47741;PMS5003;33504;52.066;6.096;2022-08-25T10:29:02;10;9;
47741;PMS5003;33504;52.066;6.096;2022-08-25T10:31:38;10;9;
47741;PMS5003;33504;52.066;6.096;2022-08-25T10:34:16;10;10;
47741;PMS5003;33504;52.066;6.096;2022-08-25T10:36:57;9;9;
47741;PMS5003;33504;52.066;6.096;2022-08-25T10:39:35;9;9;
47741;PMS5003;33504;52.066;6.096;2022-08-25T10:42:14;9;9;
47741;PMS5003;33504;52.066;6.096;2022-08-25T10:44:58;8;8;
47741;PMS5003;33504;52.066;6.096;2022-08-25T10:47:41;9;9;
47741;PMS5003;33504;52.066;6.096;2022-08-25T10:50:20;7;7;
47741;PMS5003;33504;52.066;6.096;2022-08-25T10:52:56;10;10;
47741;PMS5003;33504;52.066;6.096;2022-08-25T10:55:37;10;9;
47741;PMS5003;33504;52.066;6.096;2022-08-25T10:58:11;8;8;
47741;PMS5003;33504;52.066;6.096;2022-08-25T11:00:46;7;6;
47741;PMS5003;33504;52.066;6.096;2022-08-25T11:03:24;9;7;
47741;PMS5003;33504;52.066;6.096;2022-08-25T11:06:04;6;6;
47741;PMS5003;33504;52.066;6.096;2022-08-25T11:08:38;5;5;
47741;PMS5003;33504;52.066;6.096;2022-08-25T11:11:09;6;6;
47741;PMS5003;33504;52.066;6.096;2022-08-25T11:13:44;8;6;
47741;PMS5003;33504;52.066;6.096;2022-08-25T11:16:17;7;7;
47741;PMS5003;33504;52.066;6.096;2022-08-25T11:18:52;6;6;
47741;PMS5003;33504;52.066;6.096;2022-08-25T11:21:25;8;8;
47741;PMS5003;33504;52.066;6.096;2022-08-25T11:24:00;8;8;
47741;PMS5003;33504;52.066;6.096;2022-08-25T11:26:34;10;10;
47741;PMS5003;33504;52.066;6.096;2022-08-25T11:29:04;5;5;
47741;PMS5003;33504;52.066;6.096;2022-08-25T11:31:37;8;7;
47741;PMS5003;33504;52.066;6.096;2022-08-25T11:34:07;7;7;
47741;PMS5003;33504;52.066;6.096;2022-08-25T11:36:37;7;6;
47741;PMS5003;33504;52.066;6.096;2022-08-25T11:39:10;7;7;
47741;PMS5003;33504;52.066;6.096;2022-08-25T11:41:48;6;6;
47741;PMS5003;33504;52.066;6.096;2022-08-25T11:44:34;6;6;
47741;PMS5003;33504;52.066;6.096;2022-08-25T11:47:14;8;8;
47741;PMS5003;33504;52.066;6.096;2022-08-25T11:49:57;7;7;
47741;PMS5003;33504;52.066;6.096;2022-08-25T11:52:44;7;6;
47741;PMS5003;33504;52.066;6.096;2022-08-25T11:55:17;7;7;
47741;PMS5003;33504;52.066;6.096;2022-08-25T11:57:47;7;7;
47741;PMS5003;33504;52.066;6.096;2022-08-25T12:00:34;7;7;
47741;PMS5003;33504;52.066;6.096;2022-08-25T12:03:45;8;7;
47741;PMS5003;33504;52.066;6.096;2022-08-25T12:06:19;6;6;
47741;PMS5003;33504;52.066;6.096;2022-08-25T12:08:50;8;8;
47741;PMS5003;33504;52.066;6.096;2022-08-25T12:11:42;7;7;
47741;PMS5003;33504;52.066;6.096;2022-08-25T12:14:15;9;9;
47741;PMS5003;33504;52.066;6.096;2022-08-25T12:17:04;7;7;
47741;PMS5003;33504;52.066;6.096;2022-08-25T12:19:48;7;7;
47741;PMS5003;33504;52.066;6.096;2022-08-25T12:22:55;6;6;
47741;PMS5003;33504;52.066;6.096;2022-08-25T12:25:32;7;7;
47741;PMS5003;33504;52.066;6.096;2022-08-25T12:28:06;4;4;
47741;PMS5003;33504;52.066;6.096;2022-08-25T12:30:43;6;6;
47741;PMS5003;33504;52.066;6.096;2022-08-25T12:33:17;8;8;
47741;PMS5003;33504;52.066;6.096;2022-08-25T12:35:55;9;9;
47741;PMS5003;33504;52.066;6.096;2022-08-25T12:38:28;7;7;
47741;PMS5003;33504;52.066;6.096;2022-08-25T12:41:00;6;6;
47741;PMS5003;33504;52.066;6.096;2022-08-25T12:43:33;8;7;
47741;PMS5003;33504;52.066;6.096;2022-08-25T12:46:36;6;6;
47741;PMS5003;33504;52.066;6.096;2022-08-25T12:49:10;7;7;
47741;PMS5003;33504;52.066;6.096;2022-08-25T12:51:55;7;6;
47741;PMS5003;33504;52.066;6.096;2022-08-25T12:54:31;7;7;
47741;PMS5003;33504;52.066;6.096;2022-08-25T12:57:14;8;8;
47741;PMS5003;33504;52.066;6.096;2022-08-25T12:59:53;6;6;
47741;PMS5003;33504;52.066;6.096;2022-08-25T13:02:30;6;6;
47741;PMS5003;33504;52.066;6.096;2022-08-25T13:06:14;7;7;
47741;PMS5003;33504;52.066;6.096;2022-08-25T13:08:53;7;7;
47741;PMS5003;33504;52.066;6.096;2022-08-25T13:11:40;7;7;
47741;PMS5003;33504;52.066;6.096;2022-08-25T13:14:14;6;6;
47741;PMS5003;33504;52.066;6.096;2022-08-25T13:16:53;8;7;
47741;PMS5003;33504;52.066;6.096;2022-08-25T13:19:21;8;8;
47741;PMS5003;33504;52.066;6.096;2022-08-25T13:21:48;6;6;
47741;PMS5003;33504;52.066;6.096;2022-08-25T13:24:17;7;7;
47741;PMS5003;33504;52.066;6.096;2022-08-25T13:26:49;7;7;
47741;PMS5003;33504;52.066;6.096;2022-08-25T13:29:21;7;6;
47741;PMS5003;33504;52.066;6.096;2022-08-25T13:31:52;5;5;
47741;PMS5003;33504;52.066;6.096;2022-08-25T13:34:22;6;5;
47741;PMS5003;33504;52.066;6.096;2022-08-25T13:36:51;8;8;
47741;PMS5003;33504;52.066;6.096;2022-08-25T13:39:19;25;23;
47741;PMS5003;33504;52.066;6.096;2022-08-25T13:41:49;5;5;
47741;PMS5003;33504;52.066;6.096;2022-08-25T13:44:19;8;8;
47741;PMS5003;33504;52.066;6.096;2022-08-25T13:47:03;7;7;
47741;PMS5003;33504;52.066;6.096;2022-08-25T13:49:32;7;7;
47741;PMS5003;33504;52.066;6.096;2022-08-25T13:51:59;6;6;
47741;PMS5003;33504;52.066;6.096;2022-08-25T13:54:27;6;6;
47741;PMS5003;33504;52.066;6.096;2022-08-25T13:57:02;6;6;
47741;PMS5003;33504;52.066;6.096;2022-08-25T13:59:33;6;6;
47741;PMS5003;33504;52.066;6.096;2022-08-25T14:02:06;6;6;
47741;PMS5003;33504;52.066;6.096;2022-08-25T14:04:43;6;6;
47741;PMS5003;33504;52.066;6.096;2022-08-25T14:07:14;7;7;
47741;PMS5003;33504;52.066;6.096;2022-08-25T14:09:57;6;6;
47741;PMS5003;33504;52.066;6.096;2022-08-25T14:12:31;8;7;
47741;PMS5003;33504;52.066;6.096;2022-08-25T14:15:02;5;5;
47741;PMS5003;33504;52.066;6.096;2022-08-25T14:17:33;6;6;
47741;PMS5003;33504;52.066;6.096;2022-08-25T14:20:02;6;6;
47741;PMS5003;33504;52.066;6.096;2022-08-25T14:22:29;7;6;
47741;PMS5003;33504;52.066;6.096;2022-08-25T14:24:57;5;5;
47741;PMS5003;33504;52.066;6.096;2022-08-25T14:27:24;6;6;
47741;PMS5003;33504;52.066;6.096;2022-08-25T14:29:51;6;6;
47741;PMS5003;33504;52.066;6.096;2022-08-25T14:32:18;6;6;
47741;PMS5003;33504;52.066;6.096;2022-08-25T14:34:45;6;6;
47741;PMS5003;33504;52.066;6.096;2022-08-25T14:37:13;7;6;
47741;PMS5003;33504;52.066;6.096;2022-08-25T14:39:43;8;8;
47741;PMS5003;33504;52.066;6.096;2022-08-25T14:42:11;6;6;
47741;PMS5003;33504;52.066;6.096;2022-08-25T14:44:38;6;6;
47741;PMS5003;33504;52.066;6.096;2022-08-25T14:47:06;6;6;
47741;PMS5003;33504;52.066;6.096;2022-08-25T14:49:34;7;7;
47741;PMS5003;33504;52.066;6.096;2022-08-25T14:52:06;6;5;
47741;PMS5003;33504;52.066;6.096;2022-08-25T14:54:35;4;4;
47741;PMS5003;33504;52.066;6.096;2022-08-25T14:57:02;7;7;
47741;PMS5003;33504;52.066;6.096;2022-08-25T14:59:29;8;7;
47741;PMS5003;33504;52.066;6.096;2022-08-25T15:01:57;7;7;
47741;PMS5003;33504;52.066;6.096;2022-08-25T15:04:25;7;7;
47741;PMS5003;33504;52.066;6.096;2022-08-25T15:06:55;7;7;
47741;PMS5003;33504;52.066;6.096;2022-08-25T15:09:23;8;7;
47741;PMS5003;33504;52.066;6.096;2022-08-25T15:11:52;8;8;
47741;PMS5003;33504;52.066;6.096;2022-08-25T15:14:21;8;8;
47741;PMS5003;33504;52.066;6.096;2022-08-25T15:16:50;7;7;
47741;PMS5003;33504;52.066;6.096;2022-08-25T15:19:20;8;8;
47741;PMS5003;33504;52.066;6.096;2022-08-25T15:21:49;7;7;
47741;PMS5003;33504;52.066;6.096;2022-08-25T15:24:17;9;8;
47741;PMS5003;33504;52.066;6.096;2022-08-25T15:26:47;7;7;
47741;PMS5003;33504;52.066;6.096;2022-08-25T15:29:18;6;6;
47741;PMS5003;33504;52.066;6.096;2022-08-25T15:31:45;7;7;
47741;PMS5003;33504;52.066;6.096;2022-08-25T15:34:12;5;5;
47741;PMS5003;33504;52.066;6.096;2022-08-25T15:36:40;10;9;
47741;PMS5003;33504;52.066;6.096;2022-08-25T15:39:08;8;8;
47741;PMS5003;33504;52.066;6.096;2022-08-25T15:41:35;8;8;
47741;PMS5003;33504;52.066;6.096;2022-08-25T15:44:02;9;8;
47741;PMS5003;33504;52.066;6.096;2022-08-25T15:46:29;7;7;
47741;PMS5003;33504;52.066;6.096;2022-08-25T15:48:58;8;7;
47741;PMS5003;33504;52.066;6.096;2022-08-25T15:51:25;9;9;
47741;PMS5003;33504;52.066;6.096;2022-08-25T15:53:52;7;7;
47741;PMS5003;33504;52.066;6.096;2022-08-25T15:56:20;8;8;
47741;PMS5003;33504;52.066;6.096;2022-08-25T15:58:47;7;7;
47741;PMS5003;33504;52.066;6.096;2022-08-25T16:01:16;9;9;
47741;PMS5003;33504;52.066;6.096;2022-08-25T16:03:45;8;8;
47741;PMS5003;33504;52.066;6.096;2022-08-25T16:06:12;9;8;
47741;PMS5003;33504;52.066;6.096;2022-08-25T16:08:39;7;7;
47741;PMS5003;33504;52.066;6.096;2022-08-25T16:11:06;8;7;
47741;PMS5003;33504;52.066;6.096;2022-08-25T16:13:42;8;8;
47741;PMS5003;33504;52.066;6.096;2022-08-25T16:16:10;7;7;
47741;PMS5003;33504;52.066;6.096;2022-08-25T16:18:37;9;8;
47741;PMS5003;33504;52.066;6.096;2022-08-25T16:21:07;8;7;
47741;PMS5003;33504;52.066;6.096;2022-08-25T16:23:35;8;8;
47741;PMS5003;33504;52.066;6.096;2022-08-25T16:26:02;10;10;
47741;PMS5003;33504;52.066;6.096;2022-08-25T16:28:31;9;9;
47741;PMS5003;33504;52.066;6.096;2022-08-25T16:30:58;8;8;
47741;PMS5003;33504;52.066;6.096;2022-08-25T16:33:25;8;8;
47741;PMS5003;33504;52.066;6.096;2022-08-25T16:35:54;9;9;
47741;PMS5003;33504;52.066;6.096;2022-08-25T16:38:29;7;7;
47741;PMS5003;33504;52.066;6.096;2022-08-25T16:40:56;8;8;
47741;PMS5003;33504;52.066;6.096;2022-08-25T16:43:24;8;8;
47741;PMS5003;33504;52.066;6.096;2022-08-25T16:45:55;7;7;
47741;PMS5003;33504;52.066;6.096;2022-08-25T16:48:22;9;8;
47741;PMS5003;33504;52.066;6.096;2022-08-25T16:50:50;8;8;
47741;PMS5003;33504;52.066;6.096;2022-08-25T16:53:17;7;7;